Time;durP1;ratioP1;P1;durP2;ratioP2;P2;SDS_P1;SDS_P2;PMS_P1;PMS_P2;Temp;Humidity;BMP_temperature;BMP_pressure;BME280_temperature;BME280_humidity;BME280_pressure;Samples;Min_cycle;Max_cycle;Signal;HPM_P1;HPM_P2
2023/12/07 00:00:46;;;;;;;3.87;3.53;;;;;;;3.83;69.10;99670.84;4451977;32;34877;-78
2023/12/07 00:03:17;;;;;;;3.50;3.20;;;;;;;3.48;70.26;99669.81;4452180;32;33853;-77
2023/12/07 00:05:47;;;;;;;4.65;2.67;;;;;;;3.39;70.70;99678.91;4451207;32;34311;-78
2023/12/07 00:08:17;;;;;;;3.58;2.90;;;;;;;3.60;70.21;99677.16;4451822;32;33827;-78
2023/12/07 00:10:46;;;;;;;4.00;2.80;;;;;;;3.61;69.94;99683.25;4451659;32;34135;-78
2023/12/07 00:13:15;;;;;;;4.10;2.97;;;;;;;3.69;69.66;99675.88;4451421;32;35385;-78
2023/12/07 00:15:46;;;;;;;2.55;2.35;;;;;;;3.72;69.64;99678.34;4449573;32;33804;-78
2023/12/07 00:18:15;;;;;;;2.53;2.33;;;;;;;3.54;70.01;99674.78;4452150;32;34064;-78
2023/12/07 00:20:45;;;;;;;3.28;2.95;;;;;;;3.79;69.52;99676.31;4451688;32;33485;-78
2023/12/07 00:23:15;;;;;;;3.85;2.78;;;;;;;3.55;70.01;99684.34;4451789;32;34024;-78
2023/12/07 00:25:45;;;;;;;3.70;3.30;;;;;;;3.85;69.17;99678.69;4451112;32;34196;-78
2023/12/07 00:28:16;;;;;;;4.65;4.07;;;;;;;3.55;69.87;99684.34;4451858;32;33788;-78
2023/12/07 00:30:45;;;;;;;5.07;4.10;;;;;;;3.60;70.06;99686.75;4451639;32;33160;-78
2023/12/07 00:33:14;;;;;;;5.55;4.55;;;;;;;3.61;69.96;99684.09;4451840;32;34521;-78
2023/12/07 00:35:45;;;;;;;6.12;4.37;;;;;;;3.62;69.66;99680.53;4449078;32;34904;-78
2023/12/07 00:38:14;;;;;;;5.97;4.60;;;;;;;3.64;69.76;99680.47;4451651;32;33845;-78
2023/12/07 00:40:43;;;;;;;7.35;5.82;;;;;;;3.61;69.58;99686.72;4451336;32;33394;-78
2023/12/07 00:43:13;;;;;;;8.07;5.90;;;;;;;3.60;69.77;99686.75;4451651;32;33412;-78
2023/12/07 00:45:42;;;;;;;6.60;5.30;;;;;;;3.30;71.06;99688.97;4450809;32;33977;-78
2023/12/07 00:48:11;;;;;;;10.05;6.87;;;;;;;3.35;70.61;99685.22;4451741;32;33959;-78
2023/12/07 00:50:40;;;;;;;9.32;6.85;;;;;;;3.27;71.17;99679.44;4450679;32;33655;-78
2023/12/07 00:53:11;;;;;;;7.97;7.12;;;;;;;3.23;71.28;99684.91;4450430;32;33598;-78
2023/12/07 00:55:41;;;;;;;10.13;7.00;;;;;;;3.32;71.02;99682.72;4434469;32;33107;-78
2023/12/07 00:58:10;;;;;;;9.15;7.12;;;;;;;3.22;71.19;99686.66;4451374;32;35359;-78
2023/12/07 01:00:39;;;;;;;11.40;7.55;;;;;;;3.33;70.93;99680.97;4451724;32;33183;-78
2023/12/07 01:03:08;;;;;;;9.18;7.62;;;;;;;3.10;71.67;99681.94;4451310;32;48991;-78
2023/12/07 01:05:37;;;;;;;9.57;7.15;;;;;;;3.40;70.83;99685.84;4444505;32;34802;-78
2023/12/07 01:08:06;;;;;;;8.70;6.40;;;;;;;3.01;72.36;99687.56;4451382;32;34622;-78
2023/12/07 01:10:37;;;;;;;7.30;6.03;;;;;;;3.29;71.34;99685.50;4451006;32;33465;-78
2023/12/07 01:13:07;;;;;;;8.02;6.40;;;;;;;3.14;71.59;99676.50;4450993;32;34196;-78
2023/12/07 01:15:36;;;;;;;7.50;6.70;;;;;;;3.25;71.51;99675.19;4428461;32;34298;-78
2023/12/07 01:18:05;;;;;;;7.87;6.68;;;;;;;3.28;71.31;99667.22;4450997;32;49112;-79
2023/12/07 01:20:35;;;;;;;8.02;6.15;;;;;;;3.20;71.52;99667.53;4450976;32;33434;-79
2023/12/07 01:23:04;;;;;;;9.45;7.10;;;;;;;3.24;71.19;99666.50;4451374;32;33888;-79
2023/12/07 01:25:34;;;;;;;8.50;7.37;;;;;;;3.16;71.72;99668.59;4450264;32;33778;-79
2023/12/07 01:28:05;;;;;;;8.75;7.82;;;;;;;3.36;71.00;99672.97;4450803;32;34398;-79
2023/12/07 01:30:36;;;;;;;9.27;6.97;;;;;;;3.15;71.52;99665.13;4451159;32;33505;-79
2023/12/07 01:33:05;;;;;;;7.50;6.70;;;;;;;3.23;71.49;99667.41;4450722;32;48915;-79
2023/12/07 01:35:34;;;;;;;8.27;7.05;;;;;;;3.08;71.72;99661.06;4442142;32;35300;-79
2023/12/07 01:38:05;;;;;;;7.10;6.37;;;;;;;3.11;71.90;99666.16;4450879;32;34489;-79
2023/12/07 01:40:35;;;;;;;8.57;6.53;;;;;;;3.17;71.52;99665.06;4450673;32;32945;-79
2023/12/07 01:43:06;;;;;;;8.35;6.47;;;;;;;3.19;71.62;99663.22;4450504;32;34628;-79
2023/12/07 01:45:35;;;;;;;7.80;6.47;;;;;;;2.92;72.26;99671.31;4450356;32;34106;-79
2023/12/07 01:48:05;;;;;;;7.90;6.93;;;;;;;3.20;71.73;99667.53;4450631;32;33914;-79
2023/12/07 01:50:36;;;;;;;8.23;7.35;;;;;;;3.13;71.63;99669.59;4444507;32;33067;-79
2023/12/07 01:53:05;;;;;;;8.20;7.30;;;;;;;3.18;71.48;99664.16;4450454;32;34157;-79
2023/12/07 01:55:40;;;;;;;7.15;6.28;;;;;;;3.01;72.11;99654.41;4448350;32;33610;-79
2023/12/07 01:58:11;;;;;;;7.00;6.30;;;;;;;3.15;71.78;99659.88;4450395;32;33732;-78
2023/12/07 02:00:41;;;;;;;8.27;6.00;;;;;;;3.25;71.60;99669.94;4450491;32;33038;-79
2023/12/07 02:03:10;;;;;;;7.12;5.60;;;;;;;3.04;72.08;99667.34;4451797;32;33805;-79
2023/12/07 02:05:44;;;;;;;7.78;5.80;;;;;;;3.24;71.56;99665.63;4437939;32;33267;-79
2023/12/07 02:08:13;;;;;;;6.60;5.62;;;;;;;3.38;70.95;99665.91;4452513;32;34220;-79
2023/12/07 02:10:42;;;;;;;5.80;5.15;;;;;;;3.45;70.72;99669.97;4452673;32;33406;-79
2023/12/07 02:13:14;;;;;;;6.03;5.43;;;;;;;3.51;70.50;99668.84;4452356;32;33540;-79
2023/12/07 02:15:43;;;;;;;6.18;5.25;;;;;;;3.34;70.95;99665.19;4450335;32;34099;-79
2023/12/07 02:18:20;;;;;;;4.97;4.47;;;;;;;3.39;70.88;99660.59;4453021;32;34002;-79
2023/12/07 02:20:56;;;;;;;5.43;4.43;;;;;;;3.40;71.01;99653.56;4452747;32;33337;-78
2023/12/07 02:23:31;;;;;;;5.62;3.90;;;;;;;3.44;70.75;99661.25;4452725;32;33703;-78
2023/12/07 02:26:20;;;;;;;3.95;3.42;;;;;;;3.03;72.12;99656.94;4452000;32;34882;-79
2023/12/07 02:28:50;;;;;;;4.85;3.87;;;;;;;3.26;71.27;99659.44;4452464;32;34012;-79
2023/12/07 02:31:21;;;;;;;3.37;3.00;;;;;;;3.38;71.03;99664.13;4452597;32;33176;-79
2023/12/07 02:33:50;;;;;;;4.00;3.60;;;;;;;3.40;70.83;99658.81;4452050;32;33618;-79
2023/12/07 02:36:23;;;;;;;4.12;3.42;;;;;;;3.45;70.73;99669.97;4450411;32;33916;-79
2023/12/07 02:38:54;;;;;;;;;;;;;;;3.38;70.61;99665.91;4452917;32;34034;-79
2023/12/07 02:41:26;;;;;;;3.78;3.37;;;;;;;3.54;70.32;99666.09;4452466;32;34025;-79
2023/12/07 02:43:58;;;;;;;4.28;3.70;;;;;;;3.17;71.52;99663.31;4452229;32;34610;-79
2023/12/07 02:46:27;;;;;;;4.57;3.90;;;;;;;3.14;71.99;99665.19;4452018;32;34761;-79
2023/12/07 02:48:59;;;;;;;4.65;3.78;;;;;;;2.96;72.29;99667.66;4452328;32;33982;-79
2023/12/07 02:51:28;;;;;;;3.35;2.97;;;;;;;3.31;71.32;99664.47;4452679;32;34203;-79
2023/12/07 02:53:59;;;;;;;4.40;3.75;;;;;;;3.14;71.67;99665.19;4452012;32;33998;-78
2023/12/07 02:56:29;;;;;;;4.20;3.80;;;;;;;3.34;70.78;99664.34;4465169;32;33993;-79
2023/12/07 02:59:00;;;;;;;5.70;4.43;;;;;;;3.25;71.27;99662.09;4467873;32;34107;-79
2023/12/07 03:01:29;;;;;;;4.22;3.85;;;;;;;3.20;71.55;99662.31;4467901;32;34581;-79
2023/12/07 03:04:00;;;;;;;5.55;4.37;;;;;;;3.30;71.04;99665.37;4467864;32;33846;-79
2023/12/07 03:06:29;;;;;;;5.43;4.72;;;;;;;3.40;70.81;99669.28;4467786;32;34308;-79
2023/12/07 03:09:03;;;;;;;5.43;4.90;;;;;;;3.29;71.05;99672.41;4467815;32;33950;-79
2023/12/07 03:11:32;;;;;;;6.95;6.15;;;;;;;3.45;70.81;99670.81;4467592;32;34042;-79
2023/12/07 03:14:03;;;;;;;7.57;5.22;;;;;;;3.50;70.42;99685.47;4466442;32;33864;-78
2023/12/07 03:16:33;;;;;;;6.85;5.47;;;;;;;3.28;70.87;99677.69;4450170;32;34527;-79
2023/12/07 03:19:03;;;;;;;6.35;5.75;;;;;;;3.50;70.42;99690.72;4452344;32;34102;-79
2023/12/07 03:21:32;;;;;;;7.03;6.32;;;;;;;3.53;70.14;99685.34;4452613;32;33310;-79
2023/12/07 03:24:04;;;;;;;6.37;5.53;;;;;;;3.24;71.16;99681.34;4451940;32;34098;-78
2023/12/07 03:26:33;;;;;;;8.07;6.15;;;;;;;3.39;70.69;99680.69;4451658;32;35274;-78
2023/12/07 03:29:04;;;;;;;6.60;5.90;;;;;;;3.22;71.18;99686.66;4452057;32;34059;-79
2023/12/07 03:31:33;;;;;;;7.07;5.87;;;;;;;3.33;70.59;99686.22;4451985;32;33552;-79
2023/12/07 03:34:05;;;;;;;6.93;6.22;;;;;;;3.67;69.82;99691.66;4451796;32;34666;-79
2023/12/07 03:36:36;;;;;;;7.32;6.60;;;;;;;3.60;69.94;99686.75;4450570;32;33549;-79
2023/12/07 03:39:05;;;;;;;6.57;5.87;;;;;;;3.60;69.91;99681.53;4452222;32;49139;-79
2023/12/07 03:41:34;;;;;;;7.87;6.22;;;;;;;3.47;70.30;99688.22;4445854;32;33470;-79
2023/12/07 03:44:06;;;;;;;8.13;7.28;;;;;;;3.10;71.55;99688.03;4451682;32;34802;-79
2023/12/07 03:46:35;;;;;;;9.85;7.05;;;;;;;3.15;71.48;99686.06;4451675;32;34180;-79
2023/12/07 03:49:05;;;;;;;6.90;6.20;;;;;;;3.29;71.04;99689.88;4451924;32;35157;-79
2023/12/07 03:51:36;;;;;;;6.90;5.65;;;;;;;3.30;70.64;99687.19;4445902;32;33370;-79
2023/12/07 03:54:07;;;;;;;7.00;6.30;;;;;;;3.40;70.45;99698.09;4451556;32;48650;-79
2023/12/07 03:56:37;;;;;;;7.22;6.05;;;;;;;3.39;70.80;99693.78;4435716;32;32283;-79
2023/12/07 03:59:08;;;;;;;6.95;6.25;;;;;;;3.54;70.15;99690.50;4451886;32;34590;-79
2023/12/07 04:01:39;;;;;;;6.82;6.10;;;;;;;3.62;69.94;99691.03;4451959;32;34244;-79
2023/12/07 04:04:09;;;;;;;7.93;7.12;;;;;;;3.59;69.90;99693.78;4451513;32;33584;-78
2023/12/07 04:06:38;;;;;;;8.30;7.30;;;;;;;3.65;69.78;99695.28;4451771;32;34795;-78
2023/12/07 04:09:08;;;;;;;8.52;6.82;;;;;;;3.42;70.26;99702.38;4437021;32;47344;-78
2023/12/07 04:11:37;;;;;;;7.60;5.85;;;;;;;3.55;70.07;99705.31;4451604;32;33477;-78
2023/12/07 04:14:08;;;;;;;7.62;6.60;;;;;;;3.64;69.78;99704.03;4451243;32;35052;-78
2023/12/07 04:16:37;;;;;;;7.82;6.97;;;;;;;3.60;70.05;99712.97;4449863;32;33392;-78
2023/12/07 04:19:09;;;;;;;7.50;6.80;;;;;;;3.79;69.31;99713.00;4451800;32;34458;-78
2023/12/07 04:21:38;;;;;;;7.95;7.00;;;;;;;3.83;69.14;99714.56;4452318;32;33193;-78
2023/12/07 04:24:07;;;;;;;8.50;6.25;;;;;;;3.83;69.20;99714.56;4451478;32;48894;-78
2023/12/07 04:26:36;;;;;;;7.82;6.05;;;;;;;3.88;68.90;99709.97;4451055;32;34123;-78
2023/12/07 04:29:08;;;;;;;6.93;6.22;;;;;;;3.74;69.41;99718.47;4451582;32;33672;-78
2023/12/07 04:31:38;;;;;;;8.63;7.13;;;;;;;3.47;69.82;99714.41;4451339;32;34242;-79
2023/12/07 04:36:37;;;;;;;10.25;7.32;;;;;;;3.72;69.14;99716.81;4450023;32;35548;-78
2023/12/07 04:39:08;;;;;;;11.23;7.87;;;;;;;3.75;69.37;99724.53;4451136;32;49967;-78
2023/12/07 04:41:38;;;;;;;8.55;7.65;;;;;;;3.81;69.03;99724.28;4451396;32;35731;-78
2023/12/07 04:44:09;;;;;;;8.13;7.15;;;;;;;3.73;69.24;99729.00;4451115;32;34053;-78
2023/12/07 04:46:39;;;;;;;10.10;7.60;;;;;;;3.66;69.55;99736.28;4451095;32;33887;-78
2023/12/07 04:49:11;;;;;;;10.48;7.95;;;;;;;3.79;69.27;99724.34;4451456;32;34708;-78
2023/12/07 04:51:46;;;;;;;12.18;7.93;;;;;;;3.81;69.34;99732.16;4451234;32;33279;-78
2023/12/07 04:54:15;;;;;;;10.20;6.87;;;;;;;3.74;69.43;99734.19;4449847;32;33992;-78
2023/12/07 04:56:48;;;;;;;9.77;7.00;;;;;;;3.75;69.35;99730.62;4450627;32;32309;-78
2023/12/07 04:59:19;;;;;;;10.38;7.30;;;;;;;3.92;68.79;99740.38;4451188;32;34039;-78
2023/12/07 05:01:48;;;;;;;14.45;8.73;;;;;;;3.86;68.93;99743.28;4451277;32;33662;-79
2023/12/07 05:04:18;;;;;;;7.90;6.37;;;;;;;3.86;69.10;99748.50;4450962;32;33817;-79
2023/12/07 05:06:47;;;;;;;9.40;7.47;;;;;;;3.88;68.84;99746.66;4450958;32;33459;-79
2023/12/07 05:09:16;;;;;;;8.85;6.90;;;;;;;3.89;68.62;99749.22;4451659;32;33867;-79
2023/12/07 05:11:46;;;;;;;8.95;6.47;;;;;;;3.83;68.89;99756.50;4450956;32;32947;-79
2023/12/07 05:14:15;;;;;;;7.75;6.40;;;;;;;3.91;68.67;99754.41;4449416;32;33925;-78
2023/12/07 05:16:52;;;;;;;7.10;6.13;;;;;;;3.89;68.64;99753.62;4435034;32;31901;-78
2023/12/07 05:19:23;;;;;;;6.95;5.85;;;;;;;3.61;69.58;99754.81;4435713;32;33957;-79
2023/12/07 05:21:55;;;;;;;7.70;5.22;;;;;;;3.76;69.20;99755.06;4435560;32;33526;-78
2023/12/07 05:24:24;;;;;;;7.00;5.90;;;;;;;3.93;68.79;99758.66;4421182;32;33443;-79
2023/12/07 05:26:55;;;;;;;7.25;5.18;;;;;;;4.02;68.26;99756.53;4435055;32;35606;-79
2023/12/07 05:29:24;;;;;;;6.87;5.05;;;;;;;3.82;69.13;99763.53;4421040;32;34161;-78
2023/12/07 05:32:00;;;;;;;6.95;5.72;;;;;;;3.80;69.31;99767.13;4449392;32;34612;-78
2023/12/07 05:34:29;;;;;;;8.30;5.87;;;;;;;3.84;69.15;99768.69;4434224;32;34915;-78
2023/12/07 05:36:58;;;;;;;8.27;5.55;;;;;;;3.70;69.47;99772.75;4450332;32;34180;-79
2023/12/07 05:39:28;;;;;;;6.65;5.37;;;;;;;3.91;69.05;99770.97;4438897;32;34932;-79
2023/12/07 05:41:58;;;;;;;7.28;5.87;;;;;;;3.62;69.54;99774.00;4438520;32;32129;-79
2023/12/07 05:44:27;;;;;;;7.50;6.32;;;;;;;4.00;68.47;99779.34;4438248;32;33721;-79
2023/12/07 05:46:57;;;;;;;8.25;5.68;;;;;;;3.89;68.65;99777.22;4452329;32;33442;-79
2023/12/07 05:49:30;;;;;;;11.05;8.15;;;;;;;3.79;69.01;99778.53;4438422;32;32402;-78
2023/12/07 05:51:59;;;;;;;8.30;6.70;;;;;;;3.82;69.03;99784.47;4452600;32;33919;-79
2023/12/07 05:54:29;;;;;;;9.90;6.87;;;;;;;4.04;67.93;99784.41;4450779;32;35208;-78
2023/12/07 05:56:59;;;;;;;10.07;7.30;;;;;;;3.76;69.05;99787.37;4452466;32;33534;-78
2023/12/07 05:59:28;;;;;;;9.20;8.02;;;;;;;3.81;68.74;99792.44;4452737;32;33498;-78
2023/12/07 06:01:58;;;;;;;9.45;7.97;;;;;;;3.75;69.04;99795.28;4452368;32;33108;-78
2023/12/07 06:04:29;;;;;;;14.57;9.80;;;;;;;3.44;70.07;99801.81;4452072;32;33854;-78
2023/12/07 06:06:59;;;;;;;15.50;9.85;;;;;;;3.59;69.56;99801.19;4452254;32;33879;-78
2023/12/07 06:09:28;;;;;;;14.00;11.10;;;;;;;3.86;69.00;99795.69;4452954;32;34137;-78
2023/12/07 06:11:57;;;;;;;15.95;11.32;;;;;;;3.62;69.57;99806.31;4452359;32;33463;-78
2023/12/07 06:14:28;;;;;;;12.30;10.40;;;;;;;3.61;69.68;99809.84;4450268;32;35096;-78
2023/12/07 06:16:59;;;;;;;14.60;12.13;;;;;;;3.67;69.46;99811.34;4452124;32;34990;-79
2023/12/07 06:19:29;;;;;;;14.10;10.45;;;;;;;3.64;69.62;99809.72;4452679;32;34202;-78
2023/12/07 06:21:59;;;;;;;15.05;11.32;;;;;;;3.40;70.23;99811.56;4452466;32;33738;-78
2023/12/07 06:24:28;;;;;;;13.55;10.60;;;;;;;3.57;69.74;99817.91;4452407;32;34342;-78
2023/12/07 06:26:57;;;;;;;14.60;11.32;;;;;;;3.51;70.12;99816.38;4452062;32;34157;-78
2023/12/07 06:29:29;;;;;;;18.12;12.13;;;;;;;3.48;70.30;99823.50;4452655;32;34593;-78
2023/12/07 06:31:59;;;;;;;14.73;11.10;;;;;;;3.58;69.93;99827.47;4452233;32;33489;-79
2023/12/07 06:34:30;;;;;;;13.38;9.85;;;;;;;3.31;70.82;99830.28;4435984;32;33887;-79
2023/12/07 06:36:59;;;;;;;22.77;12.48;;;;;;;3.39;70.64;99822.97;4452065;32;33902;-79
2023/12/07 06:39:29;;;;;;;15.70;11.70;;;;;;;3.48;70.40;99833.97;4452867;32;33751;-79
2023/12/07 06:41:59;;;;;;;13.88;12.43;;;;;;;3.28;70.83;99846.13;4452463;32;33739;-79
2023/12/07 06:44:29;;;;;;;16.30;11.10;;;;;;;3.33;71.01;99846.81;4452012;32;33704;-79
2023/12/07 06:46:58;;;;;;;15.43;11.98;;;;;;;3.39;70.70;99850.94;4451983;32;34882;-79
2023/12/07 06:49:27;;;;;;;17.00;13.18;;;;;;;3.35;70.86;99851.97;4452648;32;34042;-79
2023/12/07 06:52:16;;;;;;;17.10;12.15;;;;;;;3.49;70.30;99859.28;4452317;32;33341;-79
2023/12/07 06:54:45;;;;;;;20.23;12.07;;;;;;;3.56;70.15;99852.84;4450332;32;33970;-78
2023/12/07 06:57:15;;;;;;;18.25;13.10;;;;;;;3.57;70.28;99855.44;4452489;32;34007;-79
2023/12/07 06:59:45;;;;;;;19.98;15.35;;;;;;;3.63;70.07;99859.56;4452778;32;34193;-79
2023/12/07 07:02:15;;;;;;;22.33;15.20;;;;;;;3.36;70.74;99857.13;4452508;32;33503;-78
2023/12/07 07:04:44;;;;;;;23.70;17.12;;;;;;;3.36;70.73;99864.16;4451812;32;35381;-79
2023/12/07 07:07:13;;;;;;;20.35;15.77;;;;;;;3.39;70.56;99867.50;4452130;32;34138;-78
2023/12/07 07:09:45;;;;;;;20.70;15.02;;;;;;;3.35;70.84;99865.06;4437866;32;34368;-79
2023/12/07 07:12:14;;;;;;;14.90;12.48;;;;;;;3.54;70.18;99866.03;4452499;32;34655;-79
2023/12/07 07:14:44;;;;;;;17.67;12.68;;;;;;;3.24;70.60;99872.50;4450293;32;34388;-79
2023/12/07 07:17:15;;;;;;;17.62;13.85;;;;;;;3.32;70.91;99870.41;4451971;32;34182;-79
2023/12/07 07:19:44;;;;;;;18.30;14.07;;;;;;;3.30;70.76;99867.03;4452692;32;35914;-79
2023/12/07 07:22:13;;;;;;;18.55;13.27;;;;;;;3.15;71.24;99871.09;4452451;32;34031;-79
2023/12/07 07:24:44;;;;;;;18.02;12.57;;;;;;;3.42;70.56;99875.25;4452068;32;34837;-79
2023/12/07 07:27:13;;;;;;;17.83;14.50;;;;;;;3.55;70.17;99886.06;4452524;32;34119;-79
2023/12/07 07:29:43;;;;;;;17.77;13.82;;;;;;;3.18;71.09;99878.84;4452579;32;34000;-79
2023/12/07 07:32:12;;;;;;;16.80;12.07;;;;;;;3.34;70.92;99882.56;4452768;32;34248;-79
2023/12/07 07:34:41;;;;;;;18.15;13.77;;;;;;;3.29;71.16;99876.66;4450037;32;33947;-79
2023/12/07 07:37:11;;;;;;;17.95;12.70;;;;;;;3.27;71.08;99882.84;4452138;32;33583;-79
2023/12/07 07:39:40;;;;;;;16.73;13.20;;;;;;;3.27;71.17;99888.09;4452453;32;35231;-79
2023/12/07 07:42:11;;;;;;;16.80;12.63;;;;;;;3.56;70.26;99882.53;4438108;32;31742;-79
2023/12/07 07:44:41;;;;;;;24.05;17.87;;;;;;;3.57;70.10;99886.87;4451710;32;33543;-78
2023/12/07 07:47:11;;;;;;;30.55;20.17;;;;;;;3.46;70.67;99889.06;4437437;32;34229;-79
2023/12/07 07:49:40;;;;;;;28.02;16.85;;;;;;;3.48;70.43;99889.84;4452042;32;33813;-79
2023/12/07 07:52:12;;;;;;;34.65;22.70;;;;;;;3.33;70.78;99898.34;4451966;32;33674;-79
2023/12/07 07:54:43;;;;;;;19.73;14.25;;;;;;;3.42;70.68;99898.81;4435448;32;33508;-78
2023/12/07 07:57:13;;;;;;;18.15;14.35;;;;;;;3.18;71.26;99900.63;4452158;32;34673;-78
2023/12/07 07:59:43;;;;;;;14.85;12.88;;;;;;;3.23;71.30;99900.44;4452128;32;34351;-79
2023/12/07 08:02:12;;;;;;;14.90;12.95;;;;;;;3.35;70.78;99897.34;4451693;32;33997;-79
2023/12/07 08:04:42;;;;;;;28.95;13.57;;;;;;;2.98;71.86;99897.94;4451759;32;33784;-79
2023/12/07 08:07:11;;;;;;;29.05;14.90;;;;;;;3.31;71.07;99900.16;4451688;32;34966;-79
2023/12/07 08:09:40;;;;;;;29.40;14.85;;;;;;;3.25;71.27;99903.88;4451900;32;33948;-79
2023/12/07 08:12:10;;;;;;;19.42;13.88;;;;;;;2.89;71.89;99907.00;4452012;32;33257;-79
2023/12/07 08:14:43;;;;;;;17.00;12.90;;;;;;;3.45;70.67;99905.72;4449669;32;34450;-79
2023/12/07 08:17:13;;;;;;;17.08;12.63;;;;;;;3.00;71.93;99903.09;4451238;32;33577;-79
2023/12/07 08:19:42;;;;;;;19.12;13.38;;;;;;;3.16;71.25;99910.28;4451424;32;33973;-79
2023/12/07 08:22:12;;;;;;;16.50;12.55;;;;;;;3.19;71.18;99898.88;4451426;32;33601;-78
2023/12/07 08:24:42;;;;;;;17.67;12.95;;;;;;;3.43;70.62;99907.53;4436853;32;32746;-78
2023/12/07 08:27:13;;;;;;;20.62;12.55;;;;;;;3.40;70.98;99910.25;4451401;32;33852;-78
2023/12/07 08:29:43;;;;;;;16.65;12.20;;;;;;;3.37;70.76;99907.78;4451250;32;33830;-78
2023/12/07 08:32:14;;;;;;;20.95;14.95;;;;;;;3.31;70.83;99908.00;4451005;32;33625;-78
2023/12/07 08:34:44;;;;;;;17.83;12.18;;;;;;;3.17;71.47;99906.78;4449065;32;34405;-79
2023/12/07 08:37:13;;;;;;;19.00;11.55;;;;;;;3.16;71.75;99910.28;4450815;32;34029;-78
2023/12/07 08:39:44;;;;;;;15.55;12.50;;;;;;;3.23;71.46;99913.53;4451525;32;33863;-78
2023/12/07 08:42:14;;;;;;;22.10;15.00;;;;;;;3.60;70.30;99912.94;4451782;32;33637;-78
2023/12/07 08:44:44;;;;;;;15.63;13.32;;;;;;;3.46;70.63;99915.25;4451168;32;34215;-78
2023/12/07 08:47:31;;;;;;;14.35;11.10;;;;;;;3.59;70.51;99911.22;4436768;32;33022;-78
2023/12/07 08:50:00;;;;;;;15.05;11.75;;;;;;;3.77;69.66;99914.03;4451165;32;34259;-78
2023/12/07 08:52:30;;;;;;;16.30;11.77;;;;;;;3.47;70.38;99914.34;4451252;32;33487;-78
2023/12/07 08:55:15;;;;;;;17.37;10.88;;;;;;;3.45;70.48;99924.03;4441149;32;264143;-78
2023/12/07 08:57:47;;;;;;;14.93;11.15;;;;;;;3.57;70.36;99918.31;4450709;32;34226;-78
2023/12/07 09:00:23;;;;;;;13.40;11.12;;;;;;;3.67;69.78;99917.00;4451398;32;33992;-78
2023/12/07 09:02:54;;;;;;;16.40;11.60;;;;;;;3.75;69.54;99918.47;4451402;32;34198;-78
2023/12/07 09:05:26;;;;;;;16.23;11.55;;;;;;;3.63;69.93;99918.03;4450675;32;34067;-79
2023/12/07 09:07:56;;;;;;;14.55;10.98;;;;;;;3.47;70.52;99927.44;4450987;32;34176;-78
2023/12/07 09:10:28;;;;;;;18.52;12.68;;;;;;;3.56;70.26;99921.81;4450881;32;33907;-79
2023/12/07 09:12:57;;;;;;;18.77;12.75;;;;;;;3.30;71.14;99924.63;4451616;32;33522;-78
2023/12/07 09:15:28;;;;;;;15.30;11.95;;;;;;;3.64;69.96;99929.38;4450996;32;33695;-78
2023/12/07 09:17:58;;;;;;;18.35;11.88;;;;;;;3.47;70.63;99926.59;4452984;32;34767;-79
2023/12/07 09:20:29;;;;;;;18.50;13.25;;;;;;;3.59;70.26;99928.72;4452895;32;34559;-78
2023/12/07 09:22:58;;;;;;;17.33;12.98;;;;;;;3.35;71.07;99926.16;4453011;32;34201;-78
2023/12/07 09:25:29;;;;;;;23.12;12.93;;;;;;;3.50;70.24;99923.84;4452732;32;33645;-78
2023/12/07 09:28:02;;;;;;;19.02;12.98;;;;;;;3.24;71.03;99924.87;4452729;32;33770;-78
2023/12/07 09:30:34;;;;;;;18.95;12.75;;;;;;;3.14;72.22;99920.00;4453184;32;33810;-78
2023/12/07 09:33:05;;;;;;;17.10;13.10;;;;;;;3.25;71.59;99919.59;4452699;32;33508;-78
2023/12/07 09:35:35;;;;;;;17.05;12.43;;;;;;;3.35;71.35;99920.06;4450444;32;34631;-78
2023/12/07 09:38:04;;;;;;;19.05;15.02;;;;;;;3.63;70.32;99920.66;4452677;32;33989;-78
2023/12/07 09:40:34;;;;;;;17.12;13.68;;;;;;;3.40;70.85;99913.72;4452824;32;34245;-78
2023/12/07 09:43:03;;;;;;;16.08;11.88;;;;;;;3.65;70.10;99916.22;4452780;32;34859;-78
2023/12/07 09:45:34;;;;;;;19.80;14.23;;;;;;;3.77;69.96;99917.50;4452732;32;33731;-78
2023/12/07 09:48:08;;;;;;;17.37;13.00;;;;;;;3.72;69.77;99915.97;4452609;32;49076;-78
2023/12/07 09:50:38;;;;;;;16.48;12.75;;;;;;;3.67;69.64;99910.91;4452628;32;34057;-78
2023/12/07 09:53:09;;;;;;;15.73;12.43;;;;;;;3.78;69.20;99907.88;4452579;32;33490;-78
2023/12/07 09:55:38;;;;;;;19.02;13.13;;;;;;;3.55;70.30;99914.88;4450532;32;34578;-78
2023/12/07 09:58:08;;;;;;;18.65;14.07;;;;;;;3.66;69.86;99917.94;4452591;32;34527;-78
2023/12/07 10:00:40;;;;;;;19.65;15.35;;;;;;;3.67;69.93;99916.16;4453124;32;34143;-79
2023/12/07 10:03:21;;;;;;;23.35;17.10;;;;;;;3.82;69.60;99907.66;4452681;32;48701;-78
2023/12/07 10:05:57;;;;;;;20.62;16.42;;;;;;;3.51;70.56;99917.69;4436508;32;33797;-78
2023/12/07 10:08:29;;;;;;;18.50;14.18;;;;;;;3.39;71.16;99914.63;4436973;32;34893;-78
2023/12/07 10:11:09;;;;;;;30.55;23.23;;;;;;;3.81;69.62;99916.47;4437279;32;34162;-78
2023/12/07 10:13:40;;;;;;;22.85;18.40;;;;;;;3.86;69.30;99913.62;4437147;32;33518;-78
2023/12/07 10:16:14;;;;;;;41.28;30.70;;;;;;;3.22;71.37;99917.06;4447802;32;33325;-78
2023/12/07 10:18:44;;;;;;;23.87;19.50;;;;;;;3.66;70.09;99912.69;4452423;32;34167;-78
2023/12/07 10:21:14;;;;;;;26.52;18.23;;;;;;;3.78;70.24;99908.72;4453201;32;33531;-78
2023/12/07 10:23:47;;;;;;;18.67;15.15;;;;;;;3.51;70.62;99917.69;4452276;32;34277;-78
2023/12/07 10:26:20;;;;;;;18.65;15.80;;;;;;;3.63;70.35;99917.19;4451972;32;34190;-78
2023/12/07 10:28:54;;;;;;;20.33;17.67;;;;;;;4.03;69.41;99916.41;4452351;32;34209;-78
2023/12/07 10:31:26;;;;;;;19.80;15.13;;;;;;;3.80;69.91;99919.13;4452255;32;33810;-78
2023/12/07 10:33:56;;;;;;;30.25;20.92;;;;;;;3.80;69.80;99924.37;4452203;32;33707;-78
2023/12/07 10:36:25;;;;;;;23.02;18.37;;;;;;;4.00;68.96;99923.53;4450574;32;33935;-78
2023/12/07 10:38:55;;;;;;;15.65;13.07;;;;;;;3.81;69.56;99923.47;4452623;32;35468;-78
2023/12/07 10:41:25;;;;;;;17.60;12.90;;;;;;;3.68;69.71;99921.34;4452439;32;34173;-78
2023/12/07 10:44:01;;;;;;;23.02;16.15;;;;;;;3.84;69.41;99921.56;4452512;32;34350;-78
2023/12/07 10:46:34;;;;;;;16.27;13.27;;;;;;;3.87;69.37;99924.06;4451850;32;34690;-78
2023/12/07 10:49:05;;;;;;;;;;;;;;;3.67;69.98;99911.75;4452493;32;33973;-78
2023/12/07 10:51:55;;;;;;;37.20;23.25;;;;;;;3.69;70.10;99924.81;4452321;32;33815;-78
2023/12/07 10:54:30;;;;;;;23.30;17.83;;;;;;;3.88;69.69;99923.16;4450337;32;33391;-78
2023/12/07 10:57:03;;;;;;;18.98;16.77;;;;;;;3.75;69.77;99921.94;4452013;32;33688;-79
2023/12/07 10:59:36;;;;;;;18.70;14.93;;;;;;;3.74;70.11;99928.09;4452818;32;34116;-79
2023/12/07 11:02:10;;;;;;;15.73;13.77;;;;;;;3.67;70.25;99922.25;4452690;32;33730;-79
2023/12/07 11:04:42;;;;;;;19.33;15.77;;;;;;;3.88;69.61;99928.41;4452505;32;34040;-78
2023/12/07 11:07:18;;;;;;;18.42;15.98;;;;;;;3.74;69.98;99929.88;4452234;32;33548;-79
2023/12/07 11:09:54;;;;;;;20.58;15.07;;;;;;;3.41;70.77;99932.94;4452607;32;34709;-78
2023/12/07 11:12:32;;;;;;;23.70;17.62;;;;;;;3.95;69.39;99934.22;4452718;32;34837;-78
2023/12/07 11:15:02;;;;;;;19.70;14.77;;;;;;;3.68;70.06;99931.84;4450342;32;33576;-78
2023/12/07 11:17:49;;;;;;;18.73;16.10;;;;;;;3.67;70.21;99937.97;4452443;32;33911;-78
2023/12/07 11:20:22;;;;;;;20.08;16.77;;;;;;;3.74;70.10;99940.34;4452383;32;34078;-78
2023/12/07 11:22:52;;;;;;;19.12;15.52;;;;;;;3.86;69.47;99930.22;4452320;32;34351;-78
2023/12/07 11:25:21;;;;;;;21.92;17.80;;;;;;;3.47;70.85;99937.06;4452217;32;33715;-78
2023/12/07 11:28:01;;;;;;;24.73;19.37;;;;;;;3.58;70.16;99940.97;4452147;32;33575;-78
2023/12/07 11:30:33;;;;;;;25.33;20.73;;;;;;;3.41;71.30;99941.66;4452742;32;35452;-79
2023/12/07 11:33:06;;;;;;;19.73;16.02;;;;;;;3.77;70.21;99938.47;4452269;32;34062;-78
2023/12/07 11:36:04;;;;;;;26.77;21.35;;;;;;;3.71;70.31;99933.47;4449239;32;33629;-78
2023/12/07 11:38:33;;;;;;;16.50;14.27;;;;;;;3.98;69.49;99938.50;4452318;32;33762;-78
2023/12/07 11:41:03;;;;;;;23.67;17.90;;;;;;;3.79;69.78;99934.00;4452582;32;33929;-79
2023/12/07 11:43:45;;;;;;;23.23;20.65;;;;;;;3.58;70.67;99933.09;4452368;32;34708;-79
2023/12/07 11:46:16;;;;;;;27.00;20.80;;;;;;;3.72;70.42;99936.94;4452315;32;33166;-79
2023/12/07 11:48:53;;;;;;;30.05;22.25;;;;;;;4.00;69.69;99934.91;4452790;32;33628;-79
2023/12/07 11:51:23;;;;;;;22.80;18.40;;;;;;;4.24;69.15;99929.50;4452780;32;34820;-78
2023/12/07 11:53:52;;;;;;;20.08;16.95;;;;;;;4.49;68.33;99927.53;4452148;32;33923;-79